Time;durP1;ratioP1;P1;durP2;ratioP2;P2;SDS_P1;SDS_P2;PMS_P1;PMS_P2;Temp;Humidity;BMP_temperature;BMP_pressure;BME280_temperature;BME280_humidity;BME280_pressure;Samples;Min_cycle;Max_cycle;Signal;HPM_P1;HPM_P2
2022/09/03 00:00:08;;;;;;;12.73;7.05;;;18.70;99.90;;;;;;5036585;28;20044;-57
2022/09/03 00:03:13;;;;;;;7.20;6.32;;;18.80;99.90;;;;;;5053127;28;20072;-53
2022/09/03 00:06:16;;;;;;;13.20;8.15;;;18.90;99.90;;;;;;5042784;28;20041;-53
2022/09/03 00:08:47;;;;;;;7.57;6.18;;;18.90;99.90;;;;;;4983402;28;20558;-55
2022/09/03 00:11:22;;;;;;;8.43;6.90;;;18.80;99.90;;;;;;4987008;28;20041;-51
2022/09/03 00:14:01;;;;;;;9.13;7.20;;;18.90;99.90;;;;;;4985642;28;20038;-53
2022/09/03 00:16:32;;;;;;;10.27;6.65;;;18.90;99.90;;;;;;4981260;28;20062;-56
2022/09/03 00:19:02;;;;;;;9.63;7.13;;;19.00;99.90;;;;;;4986299;28;20078;-56
2022/09/03 00:22:04;;;;;;;7.90;6.95;;;19.00;99.90;;;;;;4994455;28;20079;-56
2022/09/03 00:24:36;;;;;;;9.15;6.88;;;19.00;99.90;;;;;;4941636;29;20051;-56
2022/09/03 00:27:16;;;;;;;9.32;7.10;;;19.00;99.90;;;;;;4962205;28;20043;-57
2022/09/03 00:29:53;;;;;;;11.43;7.07;;;19.00;99.90;;;;;;4960144;28;20039;-52
2022/09/03 00:32:27;;;;;;;12.52;7.25;;;19.00;99.90;;;;;;4963715;28;20495;-56
2022/09/03 00:35:01;;;;;;;16.23;7.55;;;19.00;99.90;;;;;;4963409;28;20042;-56
2022/09/03 00:37:28;;;;;;;15.45;7.82;;;19.00;99.90;;;;;;4962009;28;20039;-55
2022/09/03 00:39:55;;;;;;;15.80;7.35;;;18.80;99.90;;;;;;4965792;28;20470;-53
2022/09/03 00:42:38;;;;;;;11.18;7.68;;;18.80;99.90;;;;;;4963530;28;22314;-53
2022/09/03 00:45:15;;;;;;;9.88;7.93;;;18.90;99.90;;;;;;5004921;28;20046;-58
2022/09/03 00:48:00;;;;;;;14.70;9.05;;;18.90;99.90;;;;;;5012482;28;20068;-54
2022/09/03 00:51:02;;;;;;;15.63;8.50;;;19.00;99.90;;;;;;5009774;28;20493;-56
2022/09/03 00:53:50;;;;;;;12.43;8.10;;;19.00;99.90;;;;;;5011532;28;20054;-56
2022/09/03 00:56:35;;;;;;;12.02;8.48;;;19.00;99.90;;;;;;5008418;28;20456;-54
2022/09/03 00:59:22;;;;;;;11.93;8.75;;;18.90;99.90;;;;;;5020542;28;20045;-57
2022/09/03 01:01:57;;;;;;;14.90;10.18;;;19.00;99.90;;;;;;5069710;28;20536;-55
2022/09/03 01:04:31;;;;;;;14.35;8.68;;;19.00;99.90;;;;;;5068853;28;20530;-54
2022/09/03 01:07:08;;;;;;;11.75;9.13;;;18.90;99.90;;;;;;5072821;28;20106;-58
2022/09/03 01:09:52;;;;;;;15.55;9.27;;;18.90;99.90;;;;;;5072754;28;20440;-57
2022/09/03 01:12:28;;;;;;;14.55;8.25;;;19.00;99.90;;;;;;5077841;28;20383;-54
2022/09/03 01:15:26;;;;;;;15.05;9.55;;;19.00;99.90;;;;;;5068496;28;20034;-57
2022/09/03 01:17:52;;;;;;;13.27;9.13;;;19.00;99.90;;;;;;5010249;28;20283;-52
2022/09/03 01:20:23;;;;;;;11.13;9.65;;;19.00;99.90;;;;;;5016271;28;20148;-53
2022/09/03 01:23:07;;;;;;;15.07;9.95;;;18.90;99.90;;;;;;5012837;28;20022;-55
2022/09/03 01:25:52;;;;;;;14.40;8.98;;;19.00;99.90;;;;;;5001137;28;20050;-54
2022/09/03 01:28:33;;;;;;;14.10;9.52;;;18.90;99.90;;;;;;4988835;28;20043;-55
2022/09/03 01:31:24;;;;;;;13.43;10.20;;;18.90;99.90;;;;;;4991847;28;20453;-55
2022/09/03 01:34:10;;;;;;;14.65;10.65;;;18.90;99.90;;;;;;4988867;28;20048;-55
2022/09/03 01:37:03;;;;;;;12.68;9.40;;;18.90;99.90;;;;;;4992466;28;20031;-54
2022/09/03 01:39:36;;;;;;;15.05;9.93;;;18.90;99.90;;;;;;4987385;28;20038;-54
2022/09/03 01:42:14;;;;;;;12.95;11.05;;;18.90;99.90;;;;;;4993125;28;20500;-53
2022/09/03 01:45:16;;;;;;;18.42;10.70;;;18.90;99.90;;;;;;4992477;28;20030;-53
2022/09/03 01:47:51;;;;;;;15.70;11.07;;;18.90;99.90;;;;;;4955987;28;20200;-56
2022/09/03 01:50:49;;;;;;;13.57;10.27;;;18.90;99.90;;;;;;4954046;28;20312;-54
2022/09/03 01:53:40;;;;;;;17.80;10.57;;;18.90;99.90;;;;;;4963806;28;20115;-54
2022/09/03 01:56:33;;;;;;;15.55;12.10;;;18.90;99.90;;;;;;4940483;28;20438;-58
2022/09/03 01:59:21;;;;;;;19.02;14.85;;;18.90;99.90;;;;;;4973060;28;20142;-56
2022/09/03 02:01:57;;;;;;;22.75;15.30;;;18.90;99.90;;;;;;4968838;28;20078;-52
2022/09/03 02:04:25;;;;;;;19.42;16.40;;;18.80;99.90;;;;;;4971113;28;20146;-54
2022/09/03 02:06:52;;;;;;;18.98;15.77;;;18.80;99.90;;;;;;4971012;28;20039;-55
2022/09/03 02:09:19;;;;;;;18.98;15.23;;;18.70;99.90;;;;;;4980618;28;20026;-58
2022/09/03 02:11:51;;;;;;;21.27;14.23;;;18.80;99.90;;;;;;4973554;28;20447;-51
2022/09/03 02:14:17;;;;;;;16.88;13.55;;;18.70;99.90;;;;;;4948869;28;20043;-57
2022/09/03 02:16:43;;;;;;;19.98;13.38;;;18.70;99.90;;;;;;4973614;28;20485;-53
2022/09/03 02:19:15;;;;;;;19.92;13.43;;;18.70;99.90;;;;;;4974011;28;20532;-54
2022/09/03 02:21:46;;;;;;;;;;;18.80;99.90;;;;;;4925928;28;20042;-58
2022/09/03 02:24:12;;;;;;;18.60;12.98;;;18.80;99.90;;;;;;5020443;28;19951;-54
2022/09/03 02:26:38;;;;;;;17.83;12.57;;;18.80;99.90;;;;;;5090070;28;20036;-56
2022/09/03 02:29:04;;;;;;;17.65;12.38;;;18.80;99.90;;;;;;5092980;28;20111;-54
2022/09/03 02:31:30;;;;;;;16.95;13.00;;;18.80;99.90;;;;;;5090804;28;20517;-54
2022/09/03 02:33:58;;;;;;;18.35;13.10;;;18.80;99.90;;;;;;5095963;28;20081;-56
2022/09/03 02:36:30;;;;;;;18.42;12.30;;;18.80;99.90;;;;;;5095462;28;20036;-56
2022/09/03 02:38:57;;;;;;;15.68;12.00;;;18.80;99.90;;;;;;5092334;28;20733;-52
2022/09/03 02:41:26;;;;;;;19.33;13.85;;;18.80;99.90;;;;;;5046822;28;20036;-54
2022/09/03 02:44:33;;;;;;;25.60;13.18;;;18.80;99.90;;;;;;5094317;28;20032;-57
2022/09/03 02:47:02;;;;;;;20.70;13.98;;;18.80;99.90;;;;;;4984987;28;20057;-54
2022/09/03 02:49:28;;;;;;;22.35;13.85;;;18.80;99.90;;;;;;4993933;28;20038;-53
2022/09/03 02:52:00;;;;;;;23.95;13.85;;;18.80;99.90;;;;;;4995480;28;20072;-58
2022/09/03 02:54:26;;;;;;;23.50;15.43;;;18.60;99.90;;;;;;4996334;28;20034;-55
2022/09/03 02:56:52;;;;;;;19.05;14.02;;;18.50;99.90;;;;;;4992307;28;20034;-55
2022/09/03 02:59:18;;;;;;;17.38;14.25;;;18.50;99.90;;;;;;4959947;28;20085;-54
2022/09/03 03:01:44;;;;;;;20.67;13.63;;;18.60;99.90;;;;;;4927124;28;20046;-53
2022/09/03 03:04:10;;;;;;;20.38;15.25;;;18.60;99.90;;;;;;4993881;28;20137;-56
2022/09/03 03:06:35;;;;;;;23.40;15.57;;;18.60;99.90;;;;;;4993497;28;20427;-55
2022/09/03 03:09:04;;;;;;;21.35;15.98;;;18.60;99.90;;;;;;4996486;28;20050;-52
2022/09/03 03:11:30;;;;;;;23.55;15.38;;;18.60;99.90;;;;;;4992723;28;20097;-54
2022/09/03 03:13:56;;;;;;;26.17;15.43;;;18.70;99.90;;;;;;4992903;28;20026;-53
2022/09/03 03:16:22;;;;;;;22.30;14.73;;;18.70;99.90;;;;;;4978109;28;20130;-54
2022/09/03 03:18:49;;;;;;;23.17;14.95;;;18.70;99.90;;;;;;4996624;28;20045;-56
2022/09/03 03:21:17;;;;;;;24.20;13.77;;;18.70;99.90;;;;;;4992195;28;20042;-54
2022/09/03 03:23:43;;;;;;;20.83;14.82;;;18.70;99.90;;;;;;5089438;28;20048;-57
2022/09/03 03:26:18;;;;;;;24.63;15.13;;;18.70;99.90;;;;;;5014691;28;20052;-55
2022/09/03 03:28:47;;;;;;;21.00;14.18;;;18.70;99.90;;;;;;5037206;28;20124;-56
2022/09/03 03:31:16;;;;;;;22.38;14.88;;;18.70;99.90;;;;;;5072156;28;20025;-57
2022/09/03 03:33:41;;;;;;;29.65;16.27;;;18.80;99.90;;;;;;5071008;28;20046;-57
2022/09/03 03:36:12;;;;;;;21.15;15.90;;;18.70;99.90;;;;;;5075263;28;20096;-55
2022/09/03 03:38:38;;;;;;;22.75;14.68;;;18.70;99.90;;;;;;5076672;28;20037;-56
2022/09/03 03:41:08;;;;;;;20.52;14.45;;;18.70;99.90;;;;;;4983149;28;20119;-55
2022/09/03 03:43:34;;;;;;;23.40;15.40;;;18.70;99.90;;;;;;5071356;28;20028;-52
2022/09/03 03:46:00;;;;;;;20.63;15.00;;;18.70;99.90;;;;;;5016974;28;20123;-52
2022/09/03 03:48:26;;;;;;;24.73;15.98;;;18.70;99.90;;;;;;5077061;28;20466;-54
2022/09/03 03:50:52;;;;;;;21.58;14.38;;;18.70;99.90;;;;;;5077696;28;20032;-54
2022/09/03 03:53:18;;;;;;;21.77;14.82;;;18.70;99.90;;;;;;5072427;28;20020;-54
2022/09/03 03:55:54;;;;;;;19.65;14.82;;;18.70;99.90;;;;;;5010238;28;20068;-57
2022/09/03 03:58:20;;;;;;;24.08;14.63;;;18.70;99.90;;;;;;5075763;28;20039;-55
2022/09/03 04:00:48;;;;;;;22.77;15.63;;;18.60;99.90;;;;;;5082176;28;20028;-55
2022/09/03 04:03:14;;;;;;;23.15;14.95;;;18.60;99.90;;;;;;5075107;28;20055;-53
2022/09/03 04:05:40;;;;;;;20.23;16.45;;;18.60;99.90;;;;;;5072297;28;20368;-52
2022/09/03 04:08:06;;;;;;;19.85;15.07;;;18.60;99.90;;;;;;5061052;28;20100;-56
2022/09/03 04:10:32;;;;;;;30.77;16.27;;;18.50;99.90;;;;;;5051471;28;20507;-54
2022/09/03 04:12:58;;;;;;;22.90;15.82;;;18.40;99.90;;;;;;5018305;28;20068;-56
2022/09/03 04:15:24;;;;;;;20.67;15.27;;;18.50;99.90;;;;;;4967301;28;20388;-56
2022/09/03 04:17:49;;;;;;;22.23;15.23;;;18.50;99.90;;;;;;5054233;28;20495;-57
2022/09/03 04:20:15;;;;;;;26.27;16.30;;;18.40;99.90;;;;;;5055274;28;20048;-55
2022/09/03 04:22:41;;;;;;;24.35;16.27;;;18.50;99.90;;;;;;5052023;28;20157;-54
2022/09/03 04:25:07;;;;;;;23.27;15.90;;;18.50;99.90;;;;;;5052194;28;20147;-57
2022/09/03 04:27:33;;;;;;;23.70;15.95;;;18.50;99.90;;;;;;5057546;28;20028;-57
2022/09/03 04:29:58;;;;;;;21.08;15.48;;;18.60;99.90;;;;;;5058386;28;20033;-53
2022/09/03 04:35:09;;;;;;;23.27;15.50;;;18.60;99.90;;;;;;5052404;28;20040;-56
2022/09/03 04:37:35;;;;;;;24.48;17.63;;;18.60;99.90;;;;;;5056770;28;20404;-55
2022/09/03 04:40:01;;;;;;;22.13;14.48;;;18.60;99.90;;;;;;5014865;28;20072;-55
2022/09/03 04:42:27;;;;;;;25.42;16.38;;;18.70;99.90;;;;;;5060113;28;20452;-55
2022/09/03 04:44:52;;;;;;;22.98;15.68;;;18.70;99.90;;;;;;5051304;28;20544;-55
2022/09/03 04:47:18;;;;;;;21.90;15.32;;;18.80;99.90;;;;;;5050595;28;20163;-54
2022/09/03 04:49:44;;;;;;;24.55;15.05;;;18.80;99.90;;;;;;5037292;28;20162;-53
2022/09/03 04:52:09;;;;;;;23.98;16.42;;;18.80;99.90;;;;;;5031361;28;20064;-57
2022/09/03 04:54:35;;;;;;;20.35;15.65;;;18.70;99.90;;;;;;5054274;28;20483;-54
2022/09/03 04:57:01;;;;;;;29.85;15.63;;;18.70;99.90;;;;;;5058364;28;20029;-56
2022/09/03 04:59:27;;;;;;;26.00;16.25;;;18.80;99.90;;;;;;5051034;28;20029;-56
2022/09/03 05:01:52;;;;;;;20.90;15.00;;;18.80;99.90;;;;;;5050403;28;20029;-53
2022/09/03 05:04:18;;;;;;;28.00;15.20;;;18.90;99.90;;;;;;5011209;28;20123;-56
2022/09/03 05:06:44;;;;;;;21.48;16.42;;;18.90;99.90;;;;;;5055300;28;20376;-53
2022/09/03 05:09:10;;;;;;;25.92;16.52;;;18.90;99.90;;;;;;5054112;28;20033;-55
2022/09/03 05:11:36;;;;;;;24.88;15.48;;;18.90;99.90;;;;;;5001487;28;20051;-57
2022/09/03 05:14:02;;;;;;;25.85;16.58;;;18.90;99.90;;;;;;5056488;28;20100;-53
2022/09/03 05:16:29;;;;;;;22.95;15.07;;;18.90;99.90;;;;;;5020226;28;20098;-54
2022/09/03 05:18:58;;;;;;;28.58;16.85;;;18.80;99.90;;;;;;5047975;28;20036;-55
2022/09/03 05:21:24;;;;;;;23.60;15.85;;;18.90;99.90;;;;;;5056916;28;20033;-57
2022/09/03 05:23:51;;;;;;;30.00;17.95;;;18.90;99.90;;;;;;5051498;28;20013;-53
2022/09/03 05:26:29;;;;;;;22.60;16.48;;;18.90;99.90;;;;;;5051487;28;20127;-57
2022/09/03 05:28:58;;;;;;;23.00;15.65;;;18.90;99.90;;;;;;5049671;28;20107;-56
2022/09/03 05:31:26;;;;;;;24.33;15.23;;;18.90;99.90;;;;;;5049573;28;20385;-56
2022/09/03 05:33:57;;;;;;;29.40;16.55;;;18.70;99.90;;;;;;5011160;28;20054;-56
2022/09/03 05:36:25;;;;;;;27.23;17.33;;;18.60;99.90;;;;;;5009749;28;20056;-55
2022/09/03 05:38:54;;;;;;;25.92;16.98;;;18.70;99.90;;;;;;5010329;28;20128;-54
2022/09/03 05:41:22;;;;;;;25.70;17.27;;;18.80;99.90;;;;;;5013337;28;20116;-55
2022/09/03 05:43:54;;;;;;;24.85;16.67;;;18.80;99.90;;;;;;4997762;28;20049;-56
2022/09/03 05:46:20;;;;;;;25.40;16.33;;;18.90;99.90;;;;;;5005818;28;20128;-53
2022/09/03 05:48:46;;;;;;;23.13;15.63;;;18.90;99.90;;;;;;5012364;28;20064;-52
2022/09/03 05:51:17;;;;;;;24.35;16.30;;;19.10;99.90;;;;;;5016113;28;20099;-55
2022/09/03 05:53:45;;;;;;;20.88;15.75;;;19.10;99.90;;;;;;5019279;28;20037;-55
2022/09/03 05:56:17;;;;;;;22.73;15.50;;;19.00;99.90;;;;;;4988338;28;20138;-55
2022/09/03 05:58:45;;;;;;;23.27;15.30;;;19.20;99.90;;;;;;5015549;28;20038;-53
2022/09/03 06:01:15;;;;;;;21.63;16.35;;;19.30;99.90;;;;;;4982731;28;20042;-54
2022/09/03 06:03:42;;;;;;;24.00;13.68;;;19.30;99.90;;;;;;5013018;28;20470;-55
2022/09/03 06:06:08;;;;;;;22.33;14.05;;;19.50;99.90;;;;;;5004341;28;20045;-61
2022/09/03 06:08:37;;;;;;;20.17;14.00;;;19.60;99.90;;;;;;5062011;28;20025;-53
2022/09/03 06:11:04;;;;;;;21.45;14.45;;;19.60;99.90;;;;;;5053608;28;20036;-54
2022/09/03 06:13:31;;;;;;;17.00;13.63;;;19.90;99.90;;;;;;5058822;28;20025;-55
2022/09/03 06:15:59;;;;;;;16.50;13.13;;;19.90;99.90;;;;;;5060887;28;20036;-50
2022/09/03 06:18:26;;;;;;;18.90;13.90;;;19.90;99.90;;;;;;5057467;28;20052;-53
2022/09/03 06:21:00;;;;;;;18.13;12.68;;;20.10;99.90;;;;;;5056196;28;20032;-53
2022/09/03 06:23:27;;;;;;;21.92;12.75;;;20.10;99.90;;;;;;5056307;28;20032;-52
2022/09/03 06:26:12;;;;;;;18.25;14.00;;;20.20;99.90;;;;;;5055396;28;20049;-55
2022/09/03 06:28:42;;;;;;;18.17;12.68;;;20.50;99.90;;;;;;5041413;28;20119;-51
2022/09/03 06:31:10;;;;;;;18.42;12.38;;;20.40;99.90;;;;;;5046930;28;20029;-48
2022/09/03 06:33:37;;;;;;;20.27;12.60;;;20.50;99.90;;;;;;5051076;28;20107;-53
2022/09/03 06:36:06;;;;;;;19.65;13.00;;;20.90;99.90;;;;;;5051816;28;20068;-50
2022/09/03 06:38:36;;;;;;;17.25;11.60;;;20.90;99.90;;;;;;5051445;28;20029;-54
2022/09/03 06:41:06;;;;;;;18.17;11.15;;;21.00;99.90;;;;;;5051084;28;20468;-53
2022/09/03 06:43:34;;;;;;;18.42;12.07;;;20.90;99.90;;;;;;5017587;28;20041;-54
2022/09/03 06:46:09;;;;;;;18.95;11.52;;;21.00;99.90;;;;;;5057102;28;20052;-54
2022/09/03 06:48:36;;;;;;;17.20;10.80;;;21.20;99.90;;;;;;5053504;28;20094;-52
2022/09/03 06:51:06;;;;;;;15.57;11.30;;;21.40;99.90;;;;;;5017846;28;20514;-55
2022/09/03 06:53:37;;;;;;;17.13;10.70;;;21.40;99.90;;;;;;5047485;28;20397;-50
2022/09/03 06:56:08;;;;;;;15.88;11.70;;;21.40;99.90;;;;;;5053139;28;20025;-51
2022/09/03 06:58:41;;;;;;;17.52;10.95;;;21.40;99.90;;;;;;5051828;28;20416;-50
2022/09/03 07:01:16;;;;;;;15.85;10.38;;;21.40;99.90;;;;;;5052921;28;20032;-51
2022/09/03 07:03:44;;;;;;;15.73;10.73;;;21.70;99.90;;;;;;5017692;28;20492;-52
2022/09/03 07:06:13;;;;;;;14.30;9.85;;;21.50;99.90;;;;;;5053245;28;20035;-50
2022/09/03 07:08:41;;;;;;;17.05;10.77;;;21.40;99.90;;;;;;5009081;28;20029;-51
2022/09/03 07:11:09;;;;;;;15.00;9.50;;;21.30;99.90;;;;;;5001442;28;20125;-50
2022/09/03 07:13:40;;;;;;;15.60;8.95;;;21.50;99.90;;;;;;5053031;28;20025;-53
2022/09/03 07:16:18;;;;;;;15.55;7.43;;;21.60;99.90;;;;;;5053078;28;20049;-53
2022/09/03 07:18:45;;;;;;;12.70;8.60;;;21.60;99.90;;;;;;5052159;28;20025;-53
2022/09/03 07:21:17;;;;;;;19.80;8.65;;;21.80;99.90;;;;;;5053134;28;20029;-54
2022/09/03 07:23:43;;;;;;;13.23;8.90;;;22.10;99.90;;;;;;5052982;28;20033;-52
2022/09/03 07:26:15;;;;;;;13.93;9.73;;;22.10;99.90;;;;;;5053119;28;20159;-51
2022/09/03 07:28:42;;;;;;;10.90;8.02;;;22.20;99.90;;;;;;4958335;28;20407;-51
2022/09/03 07:31:14;;;;;;;11.45;8.48;;;22.50;99.90;;;;;;4990389;28;20040;-52
2022/09/03 07:33:40;;;;;;;12.98;8.20;;;22.70;99.90;;;;;;4958518;28;20081;-54
2022/09/03 07:36:09;;;;;;;10.15;7.55;;;22.90;99.90;;;;;;4991121;28;20160;-52
2022/09/03 07:38:35;;;;;;;12.95;7.70;;;23.00;99.90;;;;;;4990242;28;20125;-52
2022/09/03 07:41:04;;;;;;;13.63;9.57;;;22.90;99.90;;;;;;4990062;28;20113;-52
2022/09/03 07:43:47;;;;;;;13.77;9.65;;;;;;;;;;4923960;28;20035;-56
2022/09/03 07:46:26;;;;;;;10.85;7.80;;;23.40;99.90;;;;;;4991077;28;20042;-50
2022/09/03 07:48:57;;;;;;;14.00;8.60;;;22.80;99.90;;;;;;4990555;28;20049;-55
2022/09/03 07:51:25;;;;;;;10.00;7.88;;;22.90;99.90;;;;;;4972582;28;20070;-57
2022/09/03 07:53:53;;;;;;;11.73;7.60;;;22.90;99.90;;;;;;4990391;28;20038;-55
2022/09/03 07:56:20;;;;;;;13.77;8.40;;;23.00;99.90;;;;;;4990309;28;20073;-50
2022/09/03 07:58:46;;;;;;;11.82;6.72;;;22.90;99.90;;;;;;4997836;28;20026;-54
2022/09/03 08:01:18;;;;;;;10.40;7.45;;;23.20;99.90;;;;;;5051226;28;20021;-54
2022/09/03 08:03:46;;;;;;;12.73;7.18;;;23.30;99.90;;;;;;5046978;28;20072;-51
2022/09/03 08:06:13;;;;;;;11.68;7.72;;;23.20;99.90;;;;;;5043118;28;20047;-50
2022/09/03 08:08:39;;;;;;;10.82;7.60;;;23.70;99.90;;;;;;5041615;28;20022;-50
2022/09/03 08:11:10;;;;;;;12.00;6.82;;;23.90;99.90;;;;;;4997243;28;20047;-50
2022/09/03 08:13:37;;;;;;;13.55;6.63;;;;;;;;;;5040663;28;20033;-49
2022/09/03 08:16:04;;;;;;;6.95;5.63;;;24.30;99.90;;;;;;5041925;28;20072;-49
2022/09/03 08:18:34;;;;;;;9.45;5.47;;;;;;;;;;5020983;28;20044;-50
2022/09/03 08:21:00;;;;;;;14.70;5.90;;;;;;;;;;5050512;28;20037;-51
2022/09/03 08:23:26;;;;;;;11.32;5.57;;;;;;;;;;5043623;28;20026;-51
2022/09/03 08:26:02;;;;;;;7.78;6.03;;;25.00;99.90;;;;;;5042874;28;20116;-53
2022/09/03 08:28:29;;;;;;;8.90;5.90;;;25.20;99.90;;;;;;5052021;28;20459;-52
2022/09/03 08:30:54;;;;;;;9.63;6.25;;;24.90;99.90;;;;;;5017085;28;20068;-49
2022/09/03 08:33:35;;;;;;;10.60;6.50;;;25.30;99.90;;;;;;5017132;28;20475;-52
2022/09/03 08:36:07;;;;;;;11.77;6.07;;;25.60;99.90;;;;;;5006597;28;20484;-53
2022/09/03 08:38:34;;;;;;;8.13;5.40;;;;;;;;;;5001053;28;20556;-51
2022/09/03 08:41:13;;;;;;;10.55;6.97;;;26.00;99.90;;;;;;5051947;28;20108;-50
2022/09/03 08:44:19;;;;;;;11.35;7.35;;;25.30;99.90;;;;;;5051972;28;20052;-59
2022/09/03 08:47:00;;;;;;;12.48;7.85;;;25.00;99.90;;;;;;5000224;28;20115;-55
2022/09/03 08:49:47;;;;;;;12.40;9.50;;;24.60;99.90;;;;;;5051994;28;20112;-61
2022/09/03 08:52:28;;;;;;;12.63;8.60;;;24.90;99.90;;;;;;5051751;28;20021;-58
2022/09/03 08:55:07;;;;;;;11.00;7.47;;;25.20;99.90;;;;;;5051061;28;20033;-58
2022/09/03 08:57:49;;;;;;;8.02;6.68;;;25.60;99.90;;;;;;5051933;28;20473;-61
2022/09/03 09:00:16;;;;;;;9.43;6.40;;;25.30;99.90;;;;;;5051630;28;20086;-59
2022/09/03 09:02:51;;;;;;;12.52;6.00;;;25.80;99.90;;;;;;5051954;28;20028;-63
2022/09/03 09:05:24;;;;;;;11.25;6.20;;;26.10;99.90;;;;;;5051833;28;20049;-58
2022/09/03 09:08:01;;;;;;;8.73;6.35;;;26.20;99.90;;;;;;5051780;28;20021;-57
2022/09/03 09:10:36;;;;;;;6.28;5.38;;;26.20;99.90;;;;;;5051772;28;20380;-54
2022/09/03 09:13:15;;;;;;;11.20;6.32;;;;;;;;;;5051620;28;20036;-60
2022/09/03 09:15:52;;;;;;;8.63;5.30;;;26.70;99.90;;;;;;5051840;28;20384;-62
2022/09/03 09:18:49;;;;;;;13.85;6.90;;;26.90;99.90;;;;;;5051953;28;20377;-63
2022/09/03 09:21:36;;;;;;;8.05;5.55;;;26.90;99.90;;;;;;5051406;28;20086;-54
2022/09/03 09:24:10;;;;;;;7.00;5.25;;;;;;;;;;5051527;28;20073;-55
2022/09/03 09:26:39;;;;;;;8.65;5.65;;;27.60;99.90;;;;;;5051427;28;20056;-56
2022/09/03 09:29:11;;;;;;;7.57;4.90;;;27.70;99.90;;;;;;5051677;28;20036;-58
2022/09/03 09:31:38;;;;;;;;;;;27.00;99.90;;;;;;5052208;28;20025;-53
2022/09/03 09:34:06;;;;;;;6.38;4.70;;;27.20;99.90;;;;;;5051660;28;20042;-59
2022/09/03 09:36:47;;;;;;;9.55;4.53;;;27.40;99.90;;;;;;5051693;28;20230;-56
2022/09/03 09:39:14;;;;;;;12.95;4.50;;;27.70;99.90;;;;;;4999767;28;20041;-59
2022/09/03 09:41:42;;;;;;;5.28;3.63;;;27.70;99.90;;;;;;5051356;28;20036;-56
2022/09/03 09:44:18;;;;;;;7.13;4.22;;;28.20;99.90;;;;;;5051643;28;20087;-56
2022/09/03 09:46:44;;;;;;;8.02;4.30;;;;;;;;;;5051543;28;20040;-54
2022/09/03 09:49:31;;;;;;;7.22;5.07;;;29.10;99.90;;;;;;5051885;28;20030;-62
2022/09/03 09:52:02;;;;;;;9.43;5.30;;;29.10;99.90;;;;;;5051561;28;20021;-59
2022/09/03 09:54:28;;;;;;;;;;;29.60;99.90;;;;;;5016855;28;20041;-59
2022/09/03 09:57:05;;;;;;;6.75;4.72;;;29.60;99.90;;;;;;4999530;28;19905;-58
2022/09/03 09:59:36;;;;;;;7.78;4.80;;;29.30;99.90;;;;;;5051180;28;20119;-54
2022/09/03 10:02:13;;;;;;;5.60;4.13;;;28.70;99.90;;;;;;5051302;28;20033;-56
2022/09/03 10:04:42;;;;;;;5.88;4.20;;;28.60;99.90;;;;;;5016540;28;20120;-60
2022/09/03 10:07:30;;;;;;;6.82;4.55;;;28.20;99.90;;;;;;5054839;28;20103;-59
2022/09/03 10:10:13;;;;;;;8.98;4.20;;;27.40;99.90;;;;;;5054728;28;20048;-60
2022/09/03 10:12:40;;;;;;;6.20;4.10;;;;;;;;;;5054673;28;20037;-55
2022/09/03 10:15:25;;;;;;;6.82;4.32;;;;;;;;;;5054547;28;20075;-59
2022/09/03 10:18:25;;;;;;;6.00;4.32;;;;;;;;;;5054823;28;20029;-58
2022/09/03 10:20:58;;;;;;;4.90;3.58;;;;;;;;;;4953940;29;20091;-56
2022/09/03 10:23:27;;;;;;;7.47;4.60;;;;;;;;;;4954060;29;20431;-62
2022/09/03 10:25:56;;;;;;;6.65;3.63;;;;;;;;;;4942861;29;20056;-60
2022/09/03 10:28:25;;;;;;;6.68;4.47;;;;;;;;;;4934912;29;20036;-60
2022/09/03 10:31:01;;;;;;;5.25;4.15;;;;;;;;;;4934885;29;20051;-54
2022/09/03 10:33:31;;;;;;;5.10;3.22;;;;;;;;;;4934851;29;20035;-60
2022/09/03 10:36:05;;;;;;;3.85;3.17;;;;;;;;;;4934735;29;20043;-59
2022/09/03 10:38:36;;;;;;;4.28;3.50;;;;;;;;;;4934703;29;20040;-59
2022/09/03 10:41:12;;;;;;;8.25;3.42;;;;;;;;;;4934591;29;20043;-54
2022/09/03 10:43:57;;;;;;;4.53;3.03;;;;;;;;;;4918677;29;20040;-60
2022/09/03 10:46:26;;;;;;;6.25;3.10;;;;;;;;;;4934365;29;20400;-58
2022/09/03 10:49:12;;;;;;;4.53;3.30;;;;;;;;;;4934551;29;20087;-59
2022/09/03 10:51:41;;;;;;;4.53;3.05;;;;;;;;;;4934399;29;20143;-54
2022/09/03 10:54:10;;;;;;;7.57;3.88;;;;;;;;;;4934416;29;20036;-61
2022/09/03 10:56:48;;;;;;;5.60;3.05;;;;;;;;;;4946779;28;20492;-55
2022/09/03 10:59:26;;;;;;;5.53;2.97;;;;;;;;;;5033776;28;20116;-56
2022/09/03 11:01:58;;;;;;;6.65;3.72;;;;;;;;;;5016033;28;20443;-59
2022/09/03 11:04:28;;;;;;;3.95;3.45;;;;;;;;;;5033817;28;20030;-56
2022/09/03 11:07:00;;;;;;;5.93;3.22;;;;;;;;;;5033670;28;20108;-56
2022/09/03 11:09:31;;;;;;;4.70;2.90;;;;;;;;;;5033843;28;20472;-53
2022/09/03 11:12:00;;;;;;;3.60;2.42;;;;;;;;;;5033623;28;20025;-57
2022/09/03 11:14:41;;;;;;;6.10;2.85;;;;;;;;;;5033569;28;20424;-57
2022/09/03 11:17:18;;;;;;;4.82;2.45;;;;;;;;;;5032688;28;20025;-53
2022/09/03 11:19:50;;;;;;;4.18;2.83;;;;;;;;;;5033330;28;20572;-58
2022/09/03 11:22:17;;;;;;;4.40;3.00;;;;;;;;;;5033430;28;20079;-58
2022/09/03 11:24:45;;;;;;;5.85;2.75;;;;;;;;;;4999858;28;20548;-55
2022/09/03 11:27:14;;;;;;;4.78;2.75;;;;;;;;;;5053269;28;20036;-58
2022/09/03 11:29:49;;;;;;;5.72;2.90;;;;;;;;;;5053308;28;20025;-58
2022/09/03 11:32:18;;;;;;;3.28;2.78;;;;;;;;;;5053116;28;20033;-58
2022/09/03 11:34:45;;;;;;;6.47;2.90;;;;;;;;;;5053501;28;20090;-54
2022/09/03 11:37:22;;;;;;;12.45;3.17;;;;;;;;;;5053120;28;20028;-57
2022/09/03 11:39:59;;;;;;;4.05;2.50;;;;;;;;;;5053406;28;20094;-57
2022/09/03 11:42:30;;;;;;;6.35;2.80;;;;;;;;;;5052941;28;20484;-51
2022/09/03 11:44:59;;;;;;;4.82;2.97;;;;;;;;;;5053026;28;20025;-57
2022/09/03 11:47:39;;;;;;;4.30;2.65;;;;;;;;;;5053087;28;20101;-56
2022/09/03 11:50:11;;;;;;;5.25;2.60;;;;;;;;;;5052738;28;20455;-55
2022/09/03 11:52:39;;;;;;;11.77;3.17;;;;;;;;;;5053257;28;20029;-61
2022/09/03 11:55:06;;;;;;;4.05;2.60;;;30.00;93.70;;;;;;5053134;28;20116;-57
2022/09/03 11:57:40;;;;;;;4.25;2.65;;;29.90;95.60;;;;;;5017450;28;20501;-55
2022/09/03 12:00:20;;;;;;;4.05;3.00;;;29.60;96.80;;;;;;5052515;28;20048;-57
2022/09/03 12:02:55;;;;;;;4.07;2.45;;;;;;;;;;4996373;28;20053;-56
2022/09/03 12:05:21;;;;;;;3.78;2.80;;;;;;;;;;5052467;28;20484;-57
2022/09/03 12:08:05;;;;;;;4.68;3.13;;;29.00;99.90;;;;;;5052674;28;20047;-57
2022/09/03 12:10:50;;;;;;;4.80;2.67;;;;;;;;;;5052444;28;20057;-58
2022/09/03 12:13:16;;;;;;;4.80;2.67;;;;;;;;;;5052422;28;20048;-58
2022/09/03 12:16:07;;;;;;;6.97;2.88;;;28.40;99.90;;;;;;5000839;28;20029;-55
2022/09/03 12:18:35;;;;;;;4.35;2.85;;;28.40;95.60;;;;;;5052311;28;20036;-55
2022/09/03 12:21:04;;;;;;;6.22;4.00;;;28.30;96.70;;;;;;5052162;28;20037;-56
2022/09/03 12:23:43;;;;;;;6.05;3.20;;;28.00;95.80;;;;;;5017039;28;20041;-54
2022/09/03 12:26:23;;;;;;;7.57;3.80;;;28.20;96.90;;;;;;5052061;28;20053;-60
2022/09/03 12:28:57;;;;;;;7.65;4.38;;;27.70;96.70;;;;;;5034951;28;20036;-61
2022/09/03 12:31:28;;;;;;;6.22;3.80;;;26.70;97.10;;;;;;5029957;28;20067;-53
2022/09/03 12:34:10;;;;;;;5.97;4.38;;;27.10;98.70;;;;;;5032407;28;20385;-56
2022/09/03 12:36:37;;;;;;;;;;;27.20;97.80;;;;;;5032697;28;20503;-55
2022/09/03 12:39:17;;;;;;;5.10;3.78;;;27.10;98.10;;;;;;5032296;28;19955;-59
2022/09/03 12:42:18;;;;;;;4.47;3.42;;;26.50;97.80;;;;;;5032466;28;20040;-58
2022/09/03 12:44:44;;;;;;;4.55;3.65;;;27.00;97.90;;;;;;4970608;28;20038;-61
2022/09/03 12:47:12;;;;;;;7.20;3.85;;;27.20;97.80;;;;;;4970818;28;20039;-56
2022/09/03 12:49:43;;;;;;;5.57;4.05;;;27.50;97.70;;;;;;4990353;28;20338;-55
2022/09/03 12:52:16;;;;;;;5.07;3.90;;;27.80;98.90;;;;;;4990402;28;20046;-58
2022/09/03 12:55:00;;;;;;;5.00;3.45;;;28.10;98.70;;;;;;4990482;28;20054;-58
2022/09/03 12:57:37;;;;;;;5.68;3.42;;;28.10;98.50;;;;;;4990458;28;20044;-56
2022/09/03 13:00:09;;;;;;;7.22;3.45;;;28.20;98.10;;;;;;4990058;28;20050;-57
2022/09/03 13:02:50;;;;;;;6.38;3.40;;;28.10;98.00;;;;;;4990203;28;20483;-55
2022/09/03 13:05:24;;;;;;;7.57;3.80;;;28.10;97.00;;;;;;4990314;28;20037;-52
2022/09/03 13:07:55;;;;;;;4.97;3.47;;;27.70;97.60;;;;;;4970968;28;20050;-56
2022/09/03 13:10:41;;;;;;;4.68;3.15;;;27.50;97.50;;;;;;4951945;28;20047;-58
2022/09/03 13:13:18;;;;;;;6.72;4.00;;;27.70;97.60;;;;;;4970790;28;20045;-59
2022/09/03 13:16:02;;;;;;;6.00;3.55;;;27.70;97.40;;;;;;4963426;28;20038;-55
2022/09/03 13:19:02;;;;;;;5.65;3.42;;;27.30;97.70;;;;;;4970584;28;20043;-55
2022/09/03 13:21:47;;;;;;;3.33;3.03;;;27.30;97.90;;;;;;4907105;29;20135;-58
2022/09/03 13:24:19;;;;;;;5.63;3.30;;;27.40;97.80;;;;;;4913271;29;20047;-58
2022/09/03 13:27:04;;;;;;;;;;;27.60;97.70;;;;;;4913581;29;20166;-61